createdAt,value
2022-09-12T00:00:29.592Z,3.43
2022-09-12T00:03:17.843Z,3.43
2022-09-12T00:06:11.673Z,3.00
2022-09-12T00:09:01.850Z,2.97
2022-09-12T00:11:49.114Z,3.57
2022-09-12T00:14:36.769Z,3.50
2022-09-12T00:17:35.764Z,2.93
2022-09-12T00:20:23.322Z,3.00
2022-09-12T00:23:12.005Z,2.73
2022-09-12T00:25:59.517Z,3.27
2022-09-12T00:28:47.893Z,3.00
2022-09-12T00:31:35.675Z,3.57
2022-09-12T00:34:24.681Z,3.60
2022-09-12T00:37:12.025Z,3.40
2022-09-12T00:39:59.440Z,3.43
2022-09-12T00:42:46.741Z,3.33
2022-09-12T00:45:34.329Z,3.33
2022-09-12T00:48:32.492Z,3.33
2022-09-12T00:51:22.213Z,3.53
2022-09-12T00:54:15.912Z,2.83
2022-09-12T00:57:06.427Z,3.10
2022-09-12T00:59:58.258Z,2.73
2022-09-12T01:02:51.480Z,2.67
2022-09-12T01:05:44.280Z,2.63
2022-09-12T01:08:37.348Z,2.93
2022-09-12T01:11:25.050Z,3.33
2022-09-12T01:14:12.777Z,3.40
2022-09-12T01:17:00.577Z,3.03
2022-09-12T01:20:33.055Z,3.10
2022-09-12T01:24:33.541Z,3.00
2022-09-12T01:27:43.373Z,3.13
2022-09-12T01:30:47.141Z,2.90
2022-09-12T01:33:57.701Z,3.73
2022-09-12T01:36:58.520Z,3.23
2022-09-12T01:39:55.021Z,3.00
2022-09-12T01:42:52.144Z,2.90
2022-09-12T01:45:47.779Z,3.70
2022-09-12T01:48:41.958Z,3.63
2022-09-12T01:51:34.347Z,2.80
2022-09-12T01:54:28.438Z,3.00
2022-09-12T01:57:21.934Z,3.30
2022-09-12T02:00:13.385Z,3.60
2022-09-12T02:03:10.620Z,3.20
2022-09-12T02:06:02.678Z,2.67
2022-09-12T02:08:55.999Z,2.50
2022-09-12T02:11:45.715Z,2.70
2022-09-12T02:14:39.500Z,3.10
2022-09-12T02:17:28.057Z,2.73
2022-09-12T02:20:44.447Z,3.10
2022-09-12T02:24:01.425Z,2.70
2022-09-12T02:26:54.212Z,3.10
2022-09-12T02:29:42.322Z,3.20
2022-09-12T02:32:34.341Z,3.10
2022-09-12T02:35:34.182Z,2.90
2022-09-12T02:38:27.752Z,2.77
2022-09-12T02:41:20.188Z,2.80
2022-09-12T02:44:07.860Z,2.50
2022-09-12T02:46:59.926Z,3.00
2022-09-12T02:49:48.023Z,2.70
2022-09-12T02:52:37.240Z,3.07
2022-09-12T02:55:25.192Z,2.53
2022-09-12T02:58:17.318Z,3.03
2022-09-12T03:01:18.470Z,3.33
2022-09-12T03:04:39.056Z,3.30
2022-09-12T03:08:00.338Z,3.70
2022-09-12T03:11:14.617Z,3.40
2022-09-12T03:14:16.911Z,3.27
2022-09-12T03:17:14.995Z,3.50
2022-09-12T03:20:11.493Z,3.17
2022-09-12T03:23:05.748Z,3.60
2022-09-12T03:25:59.481Z,4.10
2022-09-12T03:28:48.840Z,3.33
2022-09-12T03:31:36.242Z,3.80
2022-09-12T03:34:25.369Z,3.60
2022-09-12T03:37:12.989Z,3.03
2022-09-12T03:40:02.069Z,3.13
2022-09-12T03:42:49.769Z,3.20
2022-09-12T03:45:38.362Z,3.50
2022-09-12T03:48:25.968Z,3.07
2022-09-12T03:51:13.415Z,2.80
2022-09-12T03:54:00.723Z,2.40
2022-09-12T03:56:49.389Z,2.97
2022-09-12T03:59:37.836Z,3.50
2022-09-12T04:02:25.554Z,3.37
2022-09-12T04:05:13.113Z,3.27
2022-09-12T04:08:00.312Z,3.13
2022-09-12T04:10:47.694Z,2.70
2022-09-12T04:13:37.719Z,3.00
2022-09-12T04:16:25.464Z,2.70
2022-09-12T04:19:13.188Z,2.43
2022-09-12T04:22:00.766Z,2.80
2022-09-12T04:24:48.118Z,2.60
2022-09-12T04:27:35.465Z,2.80
2022-09-12T04:30:24.228Z,2.43
2022-09-12T04:33:11.900Z,2.67
2022-09-12T04:36:05.900Z,2.87
2022-09-12T04:38:53.814Z,2.60
2022-09-12T04:41:42.783Z,3.27
2022-09-12T04:44:31.077Z,2.57
2022-09-12T04:47:19.949Z,2.87
2022-09-12T04:50:08.914Z,2.57
2022-09-12T04:52:56.662Z,2.80
2022-09-12T04:55:44.364Z,2.50
2022-09-12T04:58:33.802Z,3.07
2022-09-12T05:01:23.559Z,2.73
2022-09-12T05:04:14.034Z,2.67
2022-09-12T05:07:01.598Z,3.27
2022-09-12T05:09:48.973Z,3.40
2022-09-12T05:12:36.273Z,3.60
2022-09-12T05:15:25.045Z,4.00
2022-09-12T05:18:12.594Z,3.50
2022-09-12T05:21:03.869Z,3.27
2022-09-12T05:23:52.883Z,3.87
2022-09-12T05:26:40.105Z,3.97
2022-09-12T05:29:27.724Z,3.70
2022-09-12T05:32:15.257Z,3.77
2022-09-12T05:35:02.628Z,4.10
2022-09-12T05:37:51.280Z,2.70
2022-09-12T05:40:38.755Z,2.80
2022-09-12T05:43:25.986Z,3.03
2022-09-12T05:46:15.785Z,2.90
2022-09-12T05:49:05.804Z,3.03
2022-09-12T05:51:53.002Z,3.30
2022-09-12T05:54:41.711Z,3.33
2022-09-12T05:57:29.267Z,3.20
2022-09-12T06:00:17.881Z,2.70
2022-09-12T06:03:05.236Z,2.70
2022-09-12T06:05:52.934Z,2.83
2022-09-12T06:08:42.067Z,2.90
2022-09-12T06:11:33.282Z,3.23
2022-09-12T06:14:20.824Z,3.10
2022-09-12T06:17:08.444Z,3.70
2022-09-12T06:19:57.015Z,3.50
2022-09-12T06:22:45.512Z,3.33
2022-09-12T06:25:32.821Z,3.90
2022-09-12T06:28:21.554Z,3.40
2022-09-12T06:31:11.535Z,3.50
2022-09-12T06:34:02.987Z,3.50
2022-09-12T06:36:51.338Z,3.60
2022-09-12T06:39:38.673Z,3.57
2022-09-12T06:42:25.978Z,3.47
2022-09-12T06:45:20.051Z,3.93
2022-09-12T06:48:07.473Z,4.40
2022-09-12T06:50:59.633Z,3.60
2022-09-12T06:53:48.773Z,3.30
2022-09-12T06:56:36.137Z,4.30
2022-09-12T06:59:23.257Z,4.47
2022-09-12T07:02:12.642Z,4.40
2022-09-12T07:05:00.584Z,4.23
2022-09-12T07:07:48.166Z,4.43
2022-09-12T07:10:35.471Z,3.87
2022-09-12T07:13:22.681Z,5.30
2022-09-12T07:16:14.827Z,4.70
2022-09-12T07:19:08.305Z,4.63
2022-09-12T07:21:58.662Z,5.00
2022-09-12T07:24:47.769Z,5.50
2022-09-12T07:27:35.134Z,5.90
2022-09-12T07:30:22.419Z,5.60
2022-09-12T07:33:09.735Z,5.23
2022-09-12T07:36:03.608Z,5.90
2022-09-12T07:38:57.610Z,5.33
2022-09-12T07:41:45.151Z,5.57
2022-09-12T07:44:32.627Z,5.37
2022-09-12T07:47:20.196Z,5.43
2022-09-12T07:50:08.496Z,5.70
2022-09-12T07:52:57.162Z,5.93
2022-09-12T07:55:44.674Z,6.10
2022-09-12T07:58:33.001Z,6.20
2022-09-12T08:01:23.544Z,7.00
2022-09-12T08:04:11.805Z,6.67
2022-09-12T08:06:59.090Z,5.40
2022-09-12T08:09:48.424Z,5.37
2022-09-12T08:12:36.767Z,5.30
2022-09-12T08:15:24.933Z,5.10
2022-09-12T08:18:12.613Z,5.90
2022-09-12T08:21:00.994Z,6.60
2022-09-12T08:23:53.933Z,5.57
2022-09-12T08:26:43.174Z,4.87
2022-09-12T08:29:30.418Z,4.90
2022-09-12T08:32:17.541Z,4.77
2022-09-12T08:35:05.287Z,4.97
2022-09-12T08:37:52.833Z,4.20
2022-09-12T08:40:51.833Z,4.63
2022-09-12T08:44:09.600Z,4.53
2022-09-12T08:47:16.242Z,4.20
2022-09-12T08:50:18.737Z,4.43
2022-09-12T08:53:18.224Z,4.60
2022-09-12T08:56:11.762Z,4.03
2022-09-12T08:59:00.790Z,4.00
2022-09-12T09:01:53.646Z,4.45
2022-09-12T09:04:51.978Z,3.92
2022-09-12T09:08:05.329Z,3.83
2022-09-12T09:11:01.268Z,3.60
2022-09-12T09:14:20.784Z,3.15
2022-09-12T09:17:13.125Z,3.55
2022-09-12T09:20:07.395Z,3.67
2022-09-12T09:22:58.436Z,3.50
2022-09-12T09:25:54.223Z,3.55
2022-09-12T09:28:48.203Z,3.15
2022-09-12T09:31:40.461Z,3.60
2022-09-12T09:34:33.125Z,3.13
2022-09-12T09:37:25.140Z,3.05
2022-09-12T09:40:23.140Z,3.30
2022-09-12T09:43:22.964Z,3.20
2022-09-12T09:46:11.809Z,3.00
2022-09-12T09:49:03.928Z,2.70
2022-09-12T09:51:51.419Z,2.80
2022-09-12T09:54:45.517Z,2.97
2022-09-12T09:57:45.670Z,4.30
2022-09-12T10:00:35.339Z,3.33
2022-09-12T10:03:35.866Z,2.95
2022-09-12T10:06:31.097Z,3.10
2022-09-12T10:09:24.123Z,3.13
2022-09-12T10:12:28.248Z,3.00
2022-09-12T10:15:21.493Z,3.95
2022-09-12T10:18:08.993Z,3.78
2022-09-12T10:20:57.107Z,2.78
2022-09-12T10:23:47.856Z,3.60
2022-09-12T10:26:40.136Z,3.00
2022-09-12T10:29:31.464Z,2.30
2022-09-12T10:32:31.024Z,2.75
2022-09-12T10:35:22.180Z,2.53
2022-09-12T10:38:20.662Z,2.33
2022-09-12T10:41:11.586Z,2.85
2022-09-12T10:44:09.950Z,2.58
2022-09-12T10:46:58.150Z,2.38
2022-09-12T10:49:45.475Z,2.95
2022-09-12T10:52:33.084Z,2.33
2022-09-12T10:55:29.604Z,3.38
2022-09-12T10:58:37.551Z,2.55
2022-09-12T11:01:40.351Z,2.72
2022-09-12T11:04:45.716Z,3.17
2022-09-12T11:07:44.980Z,3.10
2022-09-12T11:10:44.322Z,2.80
2022-09-12T11:14:06.301Z,2.63
2022-09-12T11:17:03.236Z,2.50
2022-09-12T11:20:31.274Z,1.83
2022-09-12T11:23:49.011Z,2.00
2022-09-12T11:26:59.093Z,1.98
2022-09-12T11:29:52.435Z,2.00
2022-09-12T11:32:55.687Z,1.90
2022-09-12T11:35:55.303Z,1.90
2022-09-12T11:38:53.316Z,2.17
2022-09-12T11:41:44.108Z,1.85
2022-09-12T11:44:40.274Z,1.98
2022-09-12T11:47:31.361Z,1.55
2022-09-12T11:50:26.156Z,1.52
2022-09-12T11:53:20.251Z,2.20
2022-09-12T11:56:15.043Z,2.00
2022-09-12T11:59:12.556Z,2.30
2022-09-12T12:02:02.471Z,2.30
2022-09-12T12:05:17.389Z,2.15
2022-09-12T12:08:08.152Z,1.88
2022-09-12T12:10:58.377Z,1.80
2022-09-12T12:13:52.033Z,1.60
2022-09-12T12:16:41.621Z,2.00
2022-09-12T12:19:36.387Z,1.70
2022-09-12T12:22:26.094Z,1.92
2022-09-12T12:25:29.999Z,2.70
2022-09-12T12:28:57.213Z,2.10
2022-09-12T12:32:24.793Z,2.30
2022-09-12T12:35:42.866Z,1.80
2022-09-12T12:38:33.333Z,1.70
2022-09-12T12:41:46.663Z,1.50
2022-09-12T12:44:51.484Z,1.60
2022-09-12T12:47:45.069Z,1.67
2022-09-12T12:50:33.299Z,1.67
2022-09-12T12:53:25.298Z,1.70
2022-09-12T12:56:36.920Z,1.33
2022-09-12T12:59:25.461Z,1.42
2022-09-12T13:02:24.255Z,1.40
2022-09-12T13:05:21.792Z,1.55
2022-09-12T13:08:12.114Z,1.77
2022-09-12T13:11:03.085Z,1.20
2022-09-12T13:13:59.768Z,1.85
2022-09-12T13:16:56.984Z,1.27
2022-09-12T13:19:45.312Z,1.40
2022-09-12T13:22:42.576Z,1.67
2022-09-12T13:25:33.064Z,1.73
2022-09-12T13:28:20.644Z,1.70
2022-09-12T13:31:21.483Z,1.50
2022-09-12T13:34:10.729Z,1.55
2022-09-12T13:37:40.440Z,1.40
2022-09-12T13:40:40.987Z,1.45
2022-09-12T13:43:39.064Z,1.70
2022-09-12T13:46:32.798Z,1.70
2022-09-12T13:49:28.313Z,1.50
2022-09-12T13:52:20.929Z,1.42
2022-09-12T13:55:29.685Z,1.33
2022-09-12T13:58:23.266Z,1.42
2022-09-12T14:01:16.369Z,1.70
2022-09-12T14:04:35.346Z,1.73
2022-09-12T14:07:25.051Z,1.48
2022-09-12T14:10:26.237Z,1.30
2022-09-12T14:13:17.927Z,1.02
2022-09-12T14:16:09.477Z,1.10
2022-09-12T14:18:57.330Z,1.48
2022-09-12T14:21:47.380Z,1.25
2022-09-12T14:24:34.931Z,1.00
2022-09-12T14:27:29.087Z,1.10
2022-09-12T14:30:28.256Z,1.08
2022-09-12T14:33:22.152Z,1.20
2022-09-12T14:36:13.546Z,1.10
2022-09-12T14:39:06.143Z,1.20
2022-09-12T14:42:04.812Z,1.20
2022-09-12T14:44:58.361Z,1.13
2022-09-12T14:47:52.875Z,1.10
2022-09-12T14:50:40.420Z,1.10
2022-09-12T14:53:35.147Z,0.88
2022-09-12T14:56:39.456Z,1.10
2022-09-12T14:59:37.880Z,0.88
2022-09-12T15:02:27.868Z,0.90
2022-09-12T15:05:28.093Z,1.00
2022-09-12T15:08:16.782Z,1.08
2022-09-12T15:11:07.536Z,0.90
2022-09-12T15:13:56.505Z,1.08
2022-09-12T15:16:44.052Z,1.10
2022-09-12T15:19:31.610Z,1.00
2022-09-12T15:22:20.500Z,0.93
2022-09-12T15:25:11.653Z,1.00
2022-09-12T15:27:59.054Z,1.25
2022-09-12T15:30:49.628Z,0.90
2022-09-12T15:33:36.982Z,0.80
2022-09-12T15:36:25.690Z,0.73
2022-09-12T15:39:13.395Z,0.90
2022-09-12T15:42:01.082Z,0.80
2022-09-12T15:44:48.420Z,0.90
2022-09-12T15:47:37.243Z,0.85
2022-09-12T15:50:25.358Z,0.95
2022-09-12T15:53:17.207Z,0.88
2022-09-12T15:56:04.676Z,0.90
2022-09-12T15:58:59.128Z,0.80
2022-09-12T16:01:47.174Z,1.20
2022-09-12T16:04:36.164Z,0.80
2022-09-12T16:07:23.845Z,0.77
2022-09-12T16:10:16.843Z,0.88
2022-09-12T16:13:04.622Z,0.80
2022-09-12T16:15:52.770Z,0.80
2022-09-12T16:18:40.993Z,1.20
2022-09-12T16:21:30.102Z,1.05
2022-09-12T16:24:17.872Z,0.90
2022-09-12T16:27:05.582Z,0.70
2022-09-12T16:29:53.078Z,0.90
2022-09-12T16:32:40.790Z,0.80
2022-09-12T16:35:28.092Z,0.93
2022-09-12T16:38:16.795Z,0.90
2022-09-12T16:41:06.404Z,1.00
2022-09-12T16:43:55.088Z,0.90
2022-09-12T16:46:42.826Z,1.00
2022-09-12T16:49:30.502Z,1.00
2022-09-12T16:52:18.842Z,1.00
2022-09-12T16:55:10.062Z,1.20
2022-09-12T16:57:57.408Z,1.00
2022-09-12T17:00:45.070Z,1.10
2022-09-12T17:03:32.601Z,1.00
2022-09-12T17:06:20.467Z,1.10
2022-09-12T17:09:07.849Z,1.00
2022-09-12T17:11:59.288Z,1.30
2022-09-12T17:14:46.798Z,1.00
2022-09-12T17:17:34.067Z,0.90
2022-09-12T17:20:21.585Z,1.08
2022-09-12T17:23:10.005Z,1.10
2022-09-12T17:25:57.668Z,1.63
2022-09-12T17:28:46.261Z,1.60
2022-09-12T17:31:33.946Z,1.08
2022-09-12T17:34:21.686Z,1.15
2022-09-12T17:37:09.633Z,1.33
2022-09-12T17:39:57.853Z,1.00
2022-09-12T17:42:45.769Z,1.20
2022-09-12T17:45:34.716Z,1.10
2022-09-12T17:48:22.374Z,1.17
2022-09-12T17:51:11.136Z,1.10
2022-09-12T17:54:01.153Z,1.20
2022-09-12T17:56:51.648Z,1.20
2022-09-12T17:59:39.207Z,1.30
2022-09-12T18:02:29.362Z,1.10
2022-09-12T18:05:20.286Z,1.15
2022-09-12T18:08:07.526Z,1.40
2022-09-12T18:10:54.849Z,1.17
2022-09-12T18:13:42.428Z,1.10
2022-09-12T18:16:31.476Z,1.20
2022-09-12T18:19:20.173Z,1.02
2022-09-12T18:22:07.502Z,1.05
2022-09-12T18:24:55.219Z,1.20
2022-09-12T18:27:42.553Z,1.05
2022-09-12T18:30:31.478Z,1.60
2022-09-12T18:33:23.779Z,1.20
2022-09-12T18:36:14.698Z,1.23
2022-09-12T18:39:02.313Z,1.20
2022-09-12T18:41:49.920Z,1.38
2022-09-12T18:44:37.589Z,1.27
2022-09-12T18:47:24.895Z,1.43
2022-09-12T18:50:12.354Z,1.25
2022-09-12T18:53:01.090Z,1.40
2022-09-12T18:55:48.595Z,1.20
2022-09-12T18:58:36.209Z,1.13
2022-09-12T19:01:25.744Z,1.20
2022-09-12T19:04:16.293Z,1.40
2022-09-12T19:07:03.897Z,1.30
2022-09-12T19:09:52.620Z,1.50
2022-09-12T19:12:40.144Z,1.37
2022-09-12T19:15:27.406Z,1.20
2022-09-12T19:18:14.723Z,1.20
2022-09-12T19:21:02.102Z,1.20
2022-09-12T19:23:50.045Z,1.35
2022-09-12T19:26:41.003Z,1.50
2022-09-12T19:29:28.677Z,1.57
2022-09-12T19:32:16.062Z,1.30
2022-09-12T19:35:03.382Z,1.67
2022-09-12T19:37:50.664Z,1.77
2022-09-12T19:40:39.648Z,1.57
2022-09-12T19:43:29.327Z,1.60
2022-09-12T19:46:19.687Z,1.70
2022-09-12T19:49:06.937Z,1.67
2022-09-12T19:51:54.260Z,1.60
2022-09-12T19:54:41.641Z,1.47
2022-09-12T19:57:29.015Z,1.40
2022-09-12T20:00:18.297Z,1.77
2022-09-12T20:03:06.250Z,1.50
2022-09-12T20:05:53.964Z,1.60
2022-09-12T20:08:42.378Z,1.60
2022-09-12T20:11:29.841Z,1.70
2022-09-12T20:14:18.887Z,1.50
2022-09-12T20:17:08.617Z,1.70
2022-09-12T20:19:56.412Z,1.30
2022-09-12T20:22:44.453Z,1.50
2022-09-12T20:25:33.178Z,1.70
2022-09-12T20:28:21.098Z,1.57
2022-09-12T20:31:12.545Z,1.80
2022-09-12T20:34:02.080Z,1.53
2022-09-12T20:36:50.156Z,1.67
2022-09-12T20:39:37.578Z,1.60
2022-09-12T20:42:25.129Z,1.90
2022-09-12T20:45:12.680Z,2.07
2022-09-12T20:48:00.193Z,1.50
2022-09-12T20:50:48.859Z,1.67
2022-09-12T20:53:36.692Z,1.60
2022-09-12T20:56:24.923Z,1.70
2022-09-12T20:59:13.592Z,1.73
2022-09-12T21:02:00.965Z,1.30
2022-09-12T21:04:48.352Z,1.50
2022-09-12T21:07:37.134Z,1.57
2022-09-12T21:10:24.734Z,1.40
2022-09-12T21:13:13.070Z,1.57
2022-09-12T21:16:00.787Z,1.30
2022-09-12T21:18:49.173Z,1.80
2022-09-12T21:21:36.770Z,1.43
2022-09-12T21:24:25.494Z,1.70
2022-09-12T21:27:13.574Z,1.67
2022-09-12T21:30:03.353Z,1.70
2022-09-12T21:32:50.897Z,1.80
2022-09-12T21:35:39.045Z,1.60
2022-09-12T21:38:26.290Z,1.70
2022-09-12T21:41:18.352Z,1.80
2022-09-12T21:44:06.095Z,1.60
2022-09-12T21:46:53.467Z,2.10
2022-09-12T21:49:40.701Z,1.70
2022-09-12T21:52:28.205Z,1.73
2022-09-12T21:55:16.115Z,1.73
2022-09-12T21:58:05.068Z,1.90
2022-09-12T22:00:52.389Z,1.70
2022-09-12T22:03:43.148Z,1.80
2022-09-12T22:06:31.556Z,1.80
2022-09-12T22:09:19.363Z,1.90
2022-09-12T22:12:06.788Z,1.70
2022-09-12T22:14:56.240Z,1.60
2022-09-12T22:17:43.672Z,1.70
2022-09-12T22:20:31.122Z,1.67
2022-09-12T22:23:36.136Z,1.77
2022-09-12T22:26:23.441Z,1.63
2022-09-12T22:29:13.306Z,1.60
2022-09-12T22:32:02.450Z,1.57
2022-09-12T22:34:50.329Z,1.50
2022-09-12T22:37:37.621Z,1.80
2022-09-12T22:40:24.961Z,1.90
2022-09-12T22:43:13.004Z,1.80
2022-09-12T22:46:00.794Z,1.77
2022-09-12T22:48:49.510Z,1.43
2022-09-12T22:51:37.230Z,1.70
2022-09-12T22:54:24.643Z,1.33
2022-09-12T22:57:12.057Z,1.63
2022-09-12T22:59:59.296Z,1.30
2022-09-12T23:02:47.150Z,1.70
2022-09-12T23:05:37.980Z,1.70
2022-09-12T23:08:29.466Z,2.10
2022-09-12T23:11:19.219Z,1.80
2022-09-12T23:14:06.816Z,1.60
2022-09-12T23:16:54.334Z,1.57
2022-09-12T23:19:41.601Z,1.80
2022-09-12T23:22:30.369Z,2.20
2022-09-12T23:25:18.406Z,1.80
2022-09-12T23:28:05.927Z,1.80
2022-09-12T23:30:55.912Z,1.70
2022-09-12T23:33:44.218Z,1.60
2022-09-12T23:36:32.040Z,1.60
2022-09-12T23:39:20.920Z,1.70
2022-09-12T23:42:08.521Z,1.90
2022-09-12T23:44:55.877Z,1.67
2022-09-12T23:47:43.275Z,1.70
2022-09-12T23:50:30.570Z,1.47
2022-09-12T23:53:19.233Z,1.60
2022-09-12T23:56:08.726Z,1.60
2022-09-12T23:58:56.211Z,1.60
